sensor_id;sensor_type;location;lat;lon;timestamp;P1;durP1;ratioP1;P2;durP2;ratioP2
6432;SDS011;3249;42.690;23.260;2022-12-11T00:01:55;26.47;;;18.43;;
6432;SDS011;3249;42.690;23.260;2022-12-11T00:04:20;23.73;;;18.53;;
6432;SDS011;3249;42.690;23.260;2022-12-11T00:06:46;23.97;;;18.23;;
6432;SDS011;3249;42.690;23.260;2022-12-11T00:09:14;18.70;;;16.70;;
6432;SDS011;3249;42.690;23.260;2022-12-11T00:11:44;25.10;;;17.20;;
6432;SDS011;3249;42.690;23.260;2022-12-11T00:14:10;21.47;;;17.40;;
6432;SDS011;3249;42.690;23.260;2022-12-11T00:16:36;20.13;;;16.37;;
6432;SDS011;3249;42.690;23.260;2022-12-11T00:19:02;24.23;;;17.30;;
6432;SDS011;3249;42.690;23.260;2022-12-11T00:21:28;20.83;;;16.60;;
6432;SDS011;3249;42.690;23.260;2022-12-11T00:23:53;20.53;;;16.00;;
6432;SDS011;3249;42.690;23.260;2022-12-11T00:26:19;22.57;;;17.30;;
6432;SDS011;3249;42.690;23.260;2022-12-11T00:28:44;15.70;;;14.00;;
6432;SDS011;3249;42.690;23.260;2022-12-11T00:31:13;17.37;;;14.73;;
6432;SDS011;3249;42.690;23.260;2022-12-11T00:33:40;20.80;;;16.13;;
6432;SDS011;3249;42.690;23.260;2022-12-11T00:36:10;20.10;;;16.87;;
6432;SDS011;3249;42.690;23.260;2022-12-11T00:38:40;18.23;;;15.33;;
6432;SDS011;3249;42.690;23.260;2022-12-11T00:41:06;20.13;;;15.40;;
6432;SDS011;3249;42.690;23.260;2022-12-11T00:43:31;23.27;;;15.20;;
6432;SDS011;3249;42.690;23.260;2022-12-11T00:45:57;17.97;;;14.93;;
6432;SDS011;3249;42.690;23.260;2022-12-11T00:48:22;19.40;;;15.83;;
6432;SDS011;3249;42.690;23.260;2022-12-11T00:50:48;20.03;;;15.00;;
6432;SDS011;3249;42.690;23.260;2022-12-11T00:53:13;19.50;;;15.17;;
6432;SDS011;3249;42.690;23.260;2022-12-11T00:55:39;19.53;;;16.17;;
6432;SDS011;3249;42.690;23.260;2022-12-11T00:58:06;19.27;;;15.33;;
6432;SDS011;3249;42.690;23.260;2022-12-11T01:00:32;21.47;;;15.10;;
6432;SDS011;3249;42.690;23.260;2022-12-11T01:02:58;19.03;;;15.77;;
6432;SDS011;3249;42.690;23.260;2022-12-11T01:05:23;19.27;;;14.07;;
6432;SDS011;3249;42.690;23.260;2022-12-11T01:07:48;15.13;;;13.23;;
6432;SDS011;3249;42.690;23.260;2022-12-11T01:10:14;17.77;;;13.17;;
6432;SDS011;3249;42.690;23.260;2022-12-11T01:12:56;15.30;;;12.97;;
6432;SDS011;3249;42.690;23.260;2022-12-11T01:15:23;18.03;;;13.67;;
6432;SDS011;3249;42.690;23.260;2022-12-11T01:17:51;26.43;;;16.70;;
6432;SDS011;3249;42.690;23.260;2022-12-11T01:20:17;14.97;;;13.17;;
6432;SDS011;3249;42.690;23.260;2022-12-11T01:22:44;14.83;;;9.43;;
6432;SDS011;3249;42.690;23.260;2022-12-11T01:25:09;15.30;;;9.53;;
6432;SDS011;3249;42.690;23.260;2022-12-11T01:27:35;14.20;;;9.40;;
6432;SDS011;3249;42.690;23.260;2022-12-11T01:30:01;10.00;;;7.53;;
6432;SDS011;3249;42.690;23.260;2022-12-11T01:32:29;14.93;;;10.10;;
6432;SDS011;3249;42.690;23.260;2022-12-11T01:34:54;16.50;;;10.70;;
6432;SDS011;3249;42.690;23.260;2022-12-11T01:37:20;12.13;;;8.50;;
6432;SDS011;3249;42.690;23.260;2022-12-11T01:39:45;17.37;;;10.13;;
6432;SDS011;3249;42.690;23.260;2022-12-11T01:42:14;11.57;;;8.27;;
6432;SDS011;3249;42.690;23.260;2022-12-11T01:47:07;2.40;;;2.27;;
6432;SDS011;3249;42.690;23.260;2022-12-11T01:49:32;1.20;;;1.07;;
6432;SDS011;3249;42.690;23.260;2022-12-11T01:52:00;1.10;;;1.00;;
6432;SDS011;3249;42.690;23.260;2022-12-11T01:54:30;0.83;;;0.83;;
6432;SDS011;3249;42.690;23.260;2022-12-11T01:56:58;1.03;;;1.03;;
6432;SDS011;3249;42.690;23.260;2022-12-11T01:59:27;1.27;;;1.10;;
6432;SDS011;3249;42.690;23.260;2022-12-11T02:04:36;1.37;;;1.10;;
6432;SDS011;3249;42.690;23.260;2022-12-11T02:07:04;1.30;;;1.20;;
6432;SDS011;3249;42.690;23.260;2022-12-11T02:09:31;0.77;;;0.77;;
6432;SDS011;3249;42.690;23.260;2022-12-11T02:12:04;1.23;;;1.10;;
6432;SDS011;3249;42.690;23.260;2022-12-11T02:15:01;1.07;;;1.03;;
6432;SDS011;3249;42.690;23.260;2022-12-11T02:25:36;2.20;;;1.30;;
6432;SDS011;3249;42.690;23.260;2022-12-11T02:30:41;1.33;;;1.27;;
6432;SDS011;3249;42.690;23.260;2022-12-11T02:33:13;1.37;;;1.37;;
6432;SDS011;3249;42.690;23.260;2022-12-11T02:35:41;2.40;;;1.57;;
6432;SDS011;3249;42.690;23.260;2022-12-11T02:38:11;4.37;;;2.10;;
6432;SDS011;3249;42.690;23.260;2022-12-11T02:40:41;1.80;;;1.70;;
6432;SDS011;3249;42.690;23.260;2022-12-11T02:43:09;4.37;;;1.93;;
6432;SDS011;3249;42.690;23.260;2022-12-11T02:45:38;1.50;;;1.40;;
6432;SDS011;3249;42.690;23.260;2022-12-11T02:48:05;2.30;;;1.80;;
6432;SDS011;3249;42.690;23.260;2022-12-11T02:50:33;1.77;;;1.67;;
6432;SDS011;3249;42.690;23.260;2022-12-11T02:53:02;2.60;;;1.40;;
6432;SDS011;3249;42.690;23.260;2022-12-11T02:55:31;1.10;;;1.10;;
6432;SDS011;3249;42.690;23.260;2022-12-11T02:58:04;5.27;;;1.50;;
6432;SDS011;3249;42.690;23.260;2022-12-11T03:00:34;1.00;;;1.00;;
6432;SDS011;3249;42.690;23.260;2022-12-11T03:03:00;2.23;;;1.20;;
6432;SDS011;3249;42.690;23.260;2022-12-11T03:05:25;1.33;;;1.33;;
6432;SDS011;3249;42.690;23.260;2022-12-11T03:07:52;2.77;;;1.30;;
6432;SDS011;3249;42.690;23.260;2022-12-11T03:10:17;1.10;;;1.10;;
6432;SDS011;3249;42.690;23.260;2022-12-11T03:12:44;3.37;;;1.80;;
6432;SDS011;3249;42.690;23.260;2022-12-11T03:15:13;4.17;;;1.33;;
6432;SDS011;3249;42.690;23.260;2022-12-11T03:23:19;3.77;;;1.30;;
6432;SDS011;3249;42.690;23.260;2022-12-11T03:28:28;2.20;;;1.70;;
6432;SDS011;3249;42.690;23.260;2022-12-11T03:31:02;2.30;;;2.10;;
6432;SDS011;3249;42.690;23.260;2022-12-11T03:33:42;2.20;;;1.53;;
6432;SDS011;3249;42.690;23.260;2022-12-11T03:36:14;1.67;;;1.57;;
6432;SDS011;3249;42.690;23.260;2022-12-11T03:38:49;1.60;;;1.47;;
6432;SDS011;3249;42.690;23.260;2022-12-11T03:41:19;3.33;;;1.80;;
6432;SDS011;3249;42.690;23.260;2022-12-11T03:43:48;4.03;;;1.50;;
6432;SDS011;3249;42.690;23.260;2022-12-11T03:46:17;3.03;;;1.80;;
6432;SDS011;3249;42.690;23.260;2022-12-11T03:48:47;1.80;;;1.70;;
6432;SDS011;3249;42.690;23.260;2022-12-11T03:51:13;4.20;;;1.73;;
6432;SDS011;3249;42.690;23.260;2022-12-11T03:53:40;1.90;;;1.70;;
6432;SDS011;3249;42.690;23.260;2022-12-11T03:56:06;3.37;;;1.50;;
6432;SDS011;3249;42.690;23.260;2022-12-11T03:58:34;1.70;;;1.60;;
6432;SDS011;3249;42.690;23.260;2022-12-11T04:00:59;1.70;;;1.60;;
6432;SDS011;3249;42.690;23.260;2022-12-11T04:03:25;3.77;;;2.20;;
6432;SDS011;3249;42.690;23.260;2022-12-11T04:05:51;1.90;;;1.50;;
6432;SDS011;3249;42.690;23.260;2022-12-11T04:08:18;1.87;;;1.77;;
6432;SDS011;3249;42.690;23.260;2022-12-11T04:10:45;2.53;;;1.77;;
6432;SDS011;3249;42.690;23.260;2022-12-11T04:13:11;2.37;;;1.73;;
6432;SDS011;3249;42.690;23.260;2022-12-11T04:15:37;2.10;;;1.90;;
6432;SDS011;3249;42.690;23.260;2022-12-11T04:18:04;3.47;;;1.90;;
6432;SDS011;3249;42.690;23.260;2022-12-11T04:20:51;4.47;;;1.80;;
6432;SDS011;3249;42.690;23.260;2022-12-11T04:23:37;2.00;;;1.80;;
6432;SDS011;3249;42.690;23.260;2022-12-11T04:26:20;2.43;;;2.23;;
6432;SDS011;3249;42.690;23.260;2022-12-11T04:28:46;3.47;;;2.10;;
6432;SDS011;3249;42.690;23.260;2022-12-11T04:31:13;2.37;;;2.17;;
6432;SDS011;3249;42.690;23.260;2022-12-11T04:33:40;2.10;;;1.70;;
6432;SDS011;3249;42.690;23.260;2022-12-11T04:36:07;1.53;;;1.43;;
6432;SDS011;3249;42.690;23.260;2022-12-11T04:38:33;3.27;;;1.97;;
6432;SDS011;3249;42.690;23.260;2022-12-11T04:40:59;1.63;;;1.60;;
6432;SDS011;3249;42.690;23.260;2022-12-11T04:43:26;2.30;;;2.00;;
6432;SDS011;3249;42.690;23.260;2022-12-11T04:45:59;2.07;;;1.93;;
6432;SDS011;3249;42.690;23.260;2022-12-11T04:48:25;3.67;;;2.00;;
6432;SDS011;3249;42.690;23.260;2022-12-11T04:50:51;1.97;;;1.50;;
6432;SDS011;3249;42.690;23.260;2022-12-11T04:53:16;2.13;;;1.80;;
6432;SDS011;3249;42.690;23.260;2022-12-11T04:55:41;2.37;;;1.53;;
6432;SDS011;3249;42.690;23.260;2022-12-11T04:58:07;2.53;;;1.57;;
6432;SDS011;3249;42.690;23.260;2022-12-11T05:00:32;1.90;;;1.70;;
6432;SDS011;3249;42.690;23.260;2022-12-11T05:02:57;2.30;;;1.50;;
6432;SDS011;3249;42.690;23.260;2022-12-11T05:05:23;2.30;;;1.50;;
6432;SDS011;3249;42.690;23.260;2022-12-11T05:07:48;1.70;;;1.60;;
6432;SDS011;3249;42.690;23.260;2022-12-11T05:10:14;2.17;;;1.97;;
6432;SDS011;3249;42.690;23.260;2022-12-11T05:12:39;2.40;;;2.07;;
6432;SDS011;3249;42.690;23.260;2022-12-11T05:15:05;2.23;;;2.03;;
6432;SDS011;3249;42.690;23.260;2022-12-11T05:17:31;3.60;;;2.23;;
6432;SDS011;3249;42.690;23.260;2022-12-11T05:19:56;3.67;;;2.30;;
6432;SDS011;3249;42.690;23.260;2022-12-11T05:22:21;2.50;;;1.70;;
6432;SDS011;3249;42.690;23.260;2022-12-11T05:24:47;2.93;;;2.00;;
6432;SDS011;3249;42.690;23.260;2022-12-11T05:27:12;4.40;;;2.20;;
6432;SDS011;3249;42.690;23.260;2022-12-11T05:29:38;5.87;;;2.57;;
6432;SDS011;3249;42.690;23.260;2022-12-11T05:32:03;2.70;;;2.10;;
6432;SDS011;3249;42.690;23.260;2022-12-11T05:34:29;5.40;;;2.43;;
6432;SDS011;3249;42.690;23.260;2022-12-11T05:36:54;6.60;;;2.20;;
6432;SDS011;3249;42.690;23.260;2022-12-11T05:39:20;3.83;;;2.40;;
6432;SDS011;3249;42.690;23.260;2022-12-11T05:41:45;3.97;;;2.30;;
6432;SDS011;3249;42.690;23.260;2022-12-11T05:44:11;4.17;;;2.20;;
6432;SDS011;3249;42.690;23.260;2022-12-11T05:46:37;3.97;;;2.20;;
6432;SDS011;3249;42.690;23.260;2022-12-11T05:49:03;3.47;;;2.57;;
6432;SDS011;3249;42.690;23.260;2022-12-11T05:51:29;5.20;;;2.77;;
6432;SDS011;3249;42.690;23.260;2022-12-11T05:53:55;11.23;;;3.37;;
6432;SDS011;3249;42.690;23.260;2022-12-11T05:56:23;4.47;;;2.40;;
6432;SDS011;3249;42.690;23.260;2022-12-11T05:58:56;7.13;;;3.03;;
6432;SDS011;3249;42.690;23.260;2022-12-11T06:01:26;4.60;;;2.10;;
6432;SDS011;3249;42.690;23.260;2022-12-11T06:04:00;6.57;;;2.30;;
6432;SDS011;3249;42.690;23.260;2022-12-11T06:06:25;4.37;;;1.93;;
6432;SDS011;3249;42.690;23.260;2022-12-11T06:08:52;2.53;;;2.20;;
6432;SDS011;3249;42.690;23.260;2022-12-11T06:11:20;6.43;;;3.37;;
6432;SDS011;3249;42.690;23.260;2022-12-11T06:13:46;6.00;;;2.27;;
6432;SDS011;3249;42.690;23.260;2022-12-11T06:16:12;3.57;;;2.93;;
6432;SDS011;3249;42.690;23.260;2022-12-11T06:18:38;2.43;;;2.23;;
6432;SDS011;3249;42.690;23.260;2022-12-11T06:21:15;2.83;;;1.80;;
6432;SDS011;3249;42.690;23.260;2022-12-11T06:23:42;3.33;;;1.60;;
6432;SDS011;3249;42.690;23.260;2022-12-11T06:26:08;6.03;;;2.10;;
6432;SDS011;3249;42.690;23.260;2022-12-11T06:28:35;5.83;;;2.33;;
6432;SDS011;3249;42.690;23.260;2022-12-11T06:31:01;3.03;;;2.67;;
6432;SDS011;3249;42.690;23.260;2022-12-11T06:33:27;4.53;;;2.20;;
6432;SDS011;3249;42.690;23.260;2022-12-11T06:35:52;6.93;;;1.50;;
6432;SDS011;3249;42.690;23.260;2022-12-11T06:38:18;2.63;;;2.00;;
6432;SDS011;3249;42.690;23.260;2022-12-11T06:40:43;2.90;;;1.90;;
6432;SDS011;3249;42.690;23.260;2022-12-11T06:43:09;2.70;;;1.83;;
6432;SDS011;3249;42.690;23.260;2022-12-11T06:45:35;2.07;;;1.53;;
6432;SDS011;3249;42.690;23.260;2022-12-11T06:48:02;1.53;;;1.43;;
6432;SDS011;3249;42.690;23.260;2022-12-11T06:50:28;3.17;;;1.80;;
6432;SDS011;3249;42.690;23.260;2022-12-11T06:52:54;2.77;;;2.17;;
6432;SDS011;3249;42.690;23.260;2022-12-11T06:55:20;3.47;;;2.13;;
6432;SDS011;3249;42.690;23.260;2022-12-11T06:57:45;2.73;;;2.10;;
6432;SDS011;3249;42.690;23.260;2022-12-11T07:00:11;2.87;;;2.03;;
6432;SDS011;3249;42.690;23.260;2022-12-11T07:02:37;5.63;;;2.33;;
6432;SDS011;3249;42.690;23.260;2022-12-11T07:05:02;2.60;;;1.90;;
6432;SDS011;3249;42.690;23.260;2022-12-11T07:07:28;2.37;;;2.17;;
6432;SDS011;3249;42.690;23.260;2022-12-11T07:09:54;4.87;;;2.40;;
6432;SDS011;3249;42.690;23.260;2022-12-11T07:12:19;3.60;;;2.50;;
6432;SDS011;3249;42.690;23.260;2022-12-11T07:14:45;5.07;;;2.20;;
6432;SDS011;3249;42.690;23.260;2022-12-11T07:17:10;2.43;;;2.13;;
6432;SDS011;3249;42.690;23.260;2022-12-11T07:19:36;5.77;;;2.90;;
6432;SDS011;3249;42.690;23.260;2022-12-11T07:22:01;4.27;;;2.43;;
6432;SDS011;3249;42.690;23.260;2022-12-11T07:24:26;4.77;;;2.87;;
6432;SDS011;3249;42.690;23.260;2022-12-11T07:26:52;3.33;;;3.00;;
6432;SDS011;3249;42.690;23.260;2022-12-11T07:29:17;5.40;;;2.63;;
6432;SDS011;3249;42.690;23.260;2022-12-11T07:31:43;3.73;;;2.70;;
6432;SDS011;3249;42.690;23.260;2022-12-11T07:34:12;6.57;;;2.80;;
6432;SDS011;3249;42.690;23.260;2022-12-11T07:36:38;4.33;;;2.27;;
6432;SDS011;3249;42.690;23.260;2022-12-11T07:39:03;4.97;;;2.33;;
6432;SDS011;3249;42.690;23.260;2022-12-11T07:41:29;6.63;;;3.10;;
6432;SDS011;3249;42.690;23.260;2022-12-11T07:43:55;5.67;;;2.90;;
6432;SDS011;3249;42.690;23.260;2022-12-11T07:46:23;4.60;;;2.50;;
6432;SDS011;3249;42.690;23.260;2022-12-11T07:48:51;3.40;;;2.80;;
6432;SDS011;3249;42.690;23.260;2022-12-11T07:53:50;3.90;;;2.00;;
6432;SDS011;3249;42.690;23.260;2022-12-11T07:56:17;3.90;;;1.70;;
6432;SDS011;3249;42.690;23.260;2022-12-11T07:58:43;4.00;;;2.10;;
6432;SDS011;3249;42.690;23.260;2022-12-11T08:01:23;5.87;;;2.40;;
6432;SDS011;3249;42.690;23.260;2022-12-11T08:03:50;3.67;;;2.30;;
6432;SDS011;3249;42.690;23.260;2022-12-11T08:06:17;4.97;;;2.87;;
6432;SDS011;3249;42.690;23.260;2022-12-11T08:08:45;5.50;;;2.60;;
6432;SDS011;3249;42.690;23.260;2022-12-11T08:11:12;2.10;;;1.90;;
6432;SDS011;3249;42.690;23.260;2022-12-11T08:13:39;3.67;;;2.03;;
6432;SDS011;3249;42.690;23.260;2022-12-11T08:16:05;3.27;;;2.13;;
6432;SDS011;3249;42.690;23.260;2022-12-11T08:18:34;3.77;;;2.90;;
6432;SDS011;3249;42.690;23.260;2022-12-11T08:21:13;3.63;;;2.77;;
6432;SDS011;3249;42.690;23.260;2022-12-11T08:23:40;5.20;;;2.37;;
6432;SDS011;3249;42.690;23.260;2022-12-11T08:26:07;2.30;;;2.10;;
6432;SDS011;3249;42.690;23.260;2022-12-11T08:28:35;3.53;;;2.13;;
6432;SDS011;3249;42.690;23.260;2022-12-11T08:31:03;3.83;;;2.10;;
6432;SDS011;3249;42.690;23.260;2022-12-11T08:33:30;4.43;;;2.10;;
6432;SDS011;3249;42.690;23.260;2022-12-11T08:35:55;5.17;;;2.50;;
6432;SDS011;3249;42.690;23.260;2022-12-11T08:38:21;2.00;;;1.90;;
6432;SDS011;3249;42.690;23.260;2022-12-11T08:40:46;4.13;;;2.23;;
6432;SDS011;3249;42.690;23.260;2022-12-11T08:43:12;3.57;;;3.10;;
6432;SDS011;3249;42.690;23.260;2022-12-11T08:45:37;3.30;;;2.47;;
6432;SDS011;3249;42.690;23.260;2022-12-11T08:48:03;5.03;;;3.00;;
6432;SDS011;3249;42.690;23.260;2022-12-11T08:50:29;6.67;;;3.10;;
6432;SDS011;3249;42.690;23.260;2022-12-11T08:52:54;3.30;;;2.57;;
6432;SDS011;3249;42.690;23.260;2022-12-11T08:55:20;3.53;;;2.50;;
6432;SDS011;3249;42.690;23.260;2022-12-11T08:57:46;2.73;;;2.13;;
6432;SDS011;3249;42.690;23.260;2022-12-11T09:00:12;2.47;;;2.37;;
6432;SDS011;3249;42.690;23.260;2022-12-11T09:02:39;3.10;;;2.10;;
6432;SDS011;3249;42.690;23.260;2022-12-11T09:05:04;3.60;;;2.53;;
6432;SDS011;3249;42.690;23.260;2022-12-11T09:07:34;6.47;;;2.63;;
6432;SDS011;3249;42.690;23.260;2022-12-11T09:10:01;3.67;;;3.00;;
6432;SDS011;3249;42.690;23.260;2022-12-11T09:12:26;6.03;;;3.27;;
6432;SDS011;3249;42.690;23.260;2022-12-11T09:14:52;3.73;;;2.83;;
6432;SDS011;3249;42.690;23.260;2022-12-11T09:17:18;4.60;;;2.87;;
6432;SDS011;3249;42.690;23.260;2022-12-11T09:19:43;6.07;;;2.90;;
6432;SDS011;3249;42.690;23.260;2022-12-11T09:22:09;4.27;;;2.83;;
6432;SDS011;3249;42.690;23.260;2022-12-11T09:24:36;2.83;;;2.63;;
6432;SDS011;3249;42.690;23.260;2022-12-11T09:27:03;3.23;;;2.90;;
6432;SDS011;3249;42.690;23.260;2022-12-11T09:29:29;3.13;;;2.90;;
6432;SDS011;3249;42.690;23.260;2022-12-11T09:31:55;5.33;;;3.23;;
6432;SDS011;3249;42.690;23.260;2022-12-11T09:34:20;5.67;;;3.13;;
6432;SDS011;3249;42.690;23.260;2022-12-11T09:36:45;3.00;;;2.80;;
6432;SDS011;3249;42.690;23.260;2022-12-11T09:39:12;4.97;;;3.30;;
6432;SDS011;3249;42.690;23.260;2022-12-11T09:47:02;5.23;;;3.33;;
6432;SDS011;3249;42.690;23.260;2022-12-11T09:49:40;4.37;;;2.80;;
6432;SDS011;3249;42.690;23.260;2022-12-11T09:52:17;3.07;;;2.73;;
6432;SDS011;3249;42.690;23.260;2022-12-11T09:54:48;4.57;;;3.00;;
6432;SDS011;3249;42.690;23.260;2022-12-11T10:00:10;6.03;;;2.67;;
6432;SDS011;3249;42.690;23.260;2022-12-11T10:02:48;6.30;;;2.40;;
6432;SDS011;3249;42.690;23.260;2022-12-11T10:05:44;2.67;;;2.10;;
6432;SDS011;3249;42.690;23.260;2022-12-11T10:08:10;3.13;;;2.37;;
6432;SDS011;3249;42.690;23.260;2022-12-11T10:11:57;2.63;;;2.13;;
6432;SDS011;3249;42.690;23.260;2022-12-11T10:17:05;1.80;;;1.70;;
6432;SDS011;3249;42.690;23.260;2022-12-11T10:19:36;4.07;;;2.20;;
6432;SDS011;3249;42.690;23.260;2022-12-11T10:22:03;2.10;;;2.00;;
6432;SDS011;3249;42.690;23.260;2022-12-11T10:24:43;3.53;;;2.23;;
6432;SDS011;3249;42.690;23.260;2022-12-11T10:27:15;2.10;;;2.00;;
6432;SDS011;3249;42.690;23.260;2022-12-11T10:29:44;2.70;;;2.57;;
6432;SDS011;3249;42.690;23.260;2022-12-11T10:32:33;2.47;;;2.27;;
6432;SDS011;3249;42.690;23.260;2022-12-11T10:56:40;2.50;;;2.30;;
6432;SDS011;3249;42.690;23.260;2022-12-11T10:59:12;4.70;;;2.87;;
6432;SDS011;3249;42.690;23.260;2022-12-11T11:01:46;4.00;;;2.57;;
6432;SDS011;3249;42.690;23.260;2022-12-11T11:04:18;4.23;;;2.70;;
6432;SDS011;3249;42.690;23.260;2022-12-11T11:06:48;3.00;;;2.30;;
6432;SDS011;3249;42.690;23.260;2022-12-11T11:09:28;5.27;;;2.10;;
6432;SDS011;3249;42.690;23.260;2022-12-11T11:11:59;2.50;;;2.30;;
6432;SDS011;3249;42.690;23.260;2022-12-11T11:14:25;2.17;;;2.07;;
6432;SDS011;3249;42.690;23.260;2022-12-11T11:16:51;2.63;;;2.43;;
6432;SDS011;3249;42.690;23.260;2022-12-11T11:19:31;4.30;;;2.87;;
6432;SDS011;3249;42.690;23.260;2022-12-11T11:22:17;3.00;;;2.70;;
6432;SDS011;3249;42.690;23.260;2022-12-11T11:24:54;3.17;;;2.97;;
6432;SDS011;3249;42.690;23.260;2022-12-11T11:29:56;3.53;;;2.50;;
6432;SDS011;3249;42.690;23.260;2022-12-11T11:34:49;3.13;;;2.53;;
6432;SDS011;3249;42.690;23.260;2022-12-11T11:37:22;3.97;;;3.40;;
6432;SDS011;3249;42.690;23.260;2022-12-11T11:39:51;5.13;;;3.20;;
6432;SDS011;3249;42.690;23.260;2022-12-11T11:42:23;4.73;;;3.13;;
6432;SDS011;3249;42.690;23.260;2022-12-11T11:47:30;2.60;;;2.40;;
6432;SDS011;3249;42.690;23.260;2022-12-11T11:52:39;2.63;;;2.43;;
6432;SDS011;3249;42.690;23.260;2022-12-11T11:57:59;4.43;;;3.93;;
6432;SDS011;3249;42.690;23.260;2022-12-11T12:00:32;3.60;;;3.00;;
6432;SDS011;3249;42.690;23.260;2022-12-11T12:03:14;6.77;;;2.90;;
6432;SDS011;3249;42.690;23.260;2022-12-11T12:14:10;3.80;;;3.07;;
6432;SDS011;3249;42.690;23.260;2022-12-11T12:45:22;3.53;;;3.33;;
6432;SDS011;3249;42.690;23.260;2022-12-11T12:47:49;4.43;;;4.07;;
6432;SDS011;3249;42.690;23.260;2022-12-11T12:50:16;3.60;;;3.40;;
6432;SDS011;3249;42.690;23.260;2022-12-11T12:52:44;3.33;;;3.13;;
6432;SDS011;3249;42.690;23.260;2022-12-11T12:57:46;4.13;;;3.73;;
6432;SDS011;3249;42.690;23.260;2022-12-11T13:00:35;3.60;;;3.30;;
6432;SDS011;3249;42.690;23.260;2022-12-11T13:03:18;3.83;;;3.57;;
6432;SDS011;3249;42.690;23.260;2022-12-11T13:05:54;3.57;;;3.37;;
6432;SDS011;3249;42.690;23.260;2022-12-11T13:09:09;3.37;;;3.17;;
6432;SDS011;3249;42.690;23.260;2022-12-11T13:11:14;8.17;;;7.60;;
6432;SDS011;3249;42.690;23.260;2022-12-11T13:13:45;12.10;;;11.10;;
6432;SDS011;3249;42.690;23.260;2022-12-11T13:18:40;7.63;;;6.53;;
6432;SDS011;3249;42.690;23.260;2022-12-11T13:21:28;5.20;;;4.70;;
6432;SDS011;3249;42.690;23.260;2022-12-11T13:24:23;4.63;;;4.20;;
6432;SDS011;3249;42.690;23.260;2022-12-11T13:26:50;3.20;;;3.00;;
6432;SDS011;3249;42.690;23.260;2022-12-11T13:29:34;3.37;;;3.10;;
6432;SDS011;3249;42.690;23.260;2022-12-11T13:32:23;4.10;;;3.20;;
6432;SDS011;3249;42.690;23.260;2022-12-11T13:34:55;3.50;;;3.30;;
6432;SDS011;3249;42.690;23.260;2022-12-11T13:39:53;4.40;;;4.03;;
6432;SDS011;3249;42.690;23.260;2022-12-11T13:44:57;4.23;;;3.83;;
6432;SDS011;3249;42.690;23.260;2022-12-11T13:47:24;5.13;;;4.77;;
6432;SDS011;3249;42.690;23.260;2022-12-11T13:49:54;3.30;;;3.00;;
6432;SDS011;3249;42.690;23.260;2022-12-11T13:52:24;3.23;;;3.03;;
6432;SDS011;3249;42.690;23.260;2022-12-11T13:54:53;4.83;;;3.87;;
6432;SDS011;3249;42.690;23.260;2022-12-11T13:57:23;4.00;;;3.00;;
6432;SDS011;3249;42.690;23.260;2022-12-11T13:59:54;17.43;;;10.77;;
6432;SDS011;3249;42.690;23.260;2022-12-11T14:04:56;5.53;;;3.73;;
6432;SDS011;3249;42.690;23.260;2022-12-11T14:07:28;2.47;;;2.30;;
6432;SDS011;3249;42.690;23.260;2022-12-11T14:10:01;2.37;;;2.27;;
6432;SDS011;3249;42.690;23.260;2022-12-11T14:12:30;2.70;;;2.40;;
6432;SDS011;3249;42.690;23.260;2022-12-11T14:14:56;2.43;;;2.33;;
6432;SDS011;3249;42.690;23.260;2022-12-11T14:17:27;3.30;;;3.10;;
6432;SDS011;3249;42.690;23.260;2022-12-11T14:19:56;3.40;;;2.60;;
6432;SDS011;3249;42.690;23.260;2022-12-11T14:22:24;3.43;;;3.13;;
6432;SDS011;3249;42.690;23.260;2022-12-11T14:24:56;7.03;;;3.70;;
6432;SDS011;3249;42.690;23.260;2022-12-11T14:27:24;2.80;;;2.70;;
6432;SDS011;3249;42.690;23.260;2022-12-11T14:29:50;5.37;;;3.70;;
6432;SDS011;3249;42.690;23.260;2022-12-11T14:32:36;5.80;;;3.33;;
6432;SDS011;3249;42.690;23.260;2022-12-11T14:42:45;4.70;;;4.22;;
6432;SDS011;3249;42.690;23.260;2022-12-11T14:45:31;2.50;;;2.40;;
6432;SDS011;3249;42.690;23.260;2022-12-11T14:47:56;4.23;;;3.83;;
6432;SDS011;3249;42.690;23.260;2022-12-11T14:50:25;3.90;;;3.57;;
6432;SDS011;3249;42.690;23.260;2022-12-11T14:52:59;3.30;;;3.03;;
6432;SDS011;3249;42.690;23.260;2022-12-11T14:55:31;3.50;;;3.20;;
6432;SDS011;3249;42.690;23.260;2022-12-11T14:58:01;5.07;;;4.63;;
6432;SDS011;3249;42.690;23.260;2022-12-11T15:00:32;5.50;;;4.40;;
6432;SDS011;3249;42.690;23.260;2022-12-11T15:03:06;3.50;;;3.20;;
6432;SDS011;3249;42.690;23.260;2022-12-11T15:05:51;2.50;;;2.40;;
6432;SDS011;3249;42.690;23.260;2022-12-11T15:08:20;3.37;;;3.17;;
6432;SDS011;3249;42.690;23.260;2022-12-11T15:10:59;3.30;;;2.80;;
6432;SDS011;3249;42.690;23.260;2022-12-11T15:13:34;3.43;;;3.13;;
6432;SDS011;3249;42.690;23.260;2022-12-11T15:16:02;4.37;;;2.90;;
6432;SDS011;3249;42.690;23.260;2022-12-11T15:21:05;3.20;;;3.00;;
6432;SDS011;3249;42.690;23.260;2022-12-11T15:23:46;4.60;;;4.03;;
6432;SDS011;3249;42.690;23.260;2022-12-11T15:26:15;4.07;;;3.27;;
6432;SDS011;3249;42.690;23.260;2022-12-11T15:28:41;3.97;;;3.77;;
6432;SDS011;3249;42.690;23.260;2022-12-11T15:31:23;4.13;;;3.03;;
6432;SDS011;3249;42.690;23.260;2022-12-11T15:33:53;3.47;;;3.27;;
6432;SDS011;3249;42.690;23.260;2022-12-11T15:39:01;8.90;;;5.53;;
6432;SDS011;3249;42.690;23.260;2022-12-11T15:41:29;5.60;;;5.00;;
6432;SDS011;3249;42.690;23.260;2022-12-11T15:43:59;8.10;;;4.73;;
6432;SDS011;3249;42.690;23.260;2022-12-11T15:46:27;4.40;;;4.10;;
6432;SDS011;3249;42.690;23.260;2022-12-11T15:48:53;3.93;;;3.47;;
6432;SDS011;3249;42.690;23.260;2022-12-11T15:51:20;3.77;;;3.47;;
6432;SDS011;3249;42.690;23.260;2022-12-11T15:53:46;4.83;;;3.30;;
6432;SDS011;3249;42.690;23.260;2022-12-11T15:56:12;3.50;;;3.17;;
6432;SDS011;3249;42.690;23.260;2022-12-11T15:58:39;3.83;;;3.53;;
6432;SDS011;3249;42.690;23.260;2022-12-11T16:01:05;3.53;;;3.23;;
6432;SDS011;3249;42.690;23.260;2022-12-11T16:03:31;3.20;;;3.00;;
6432;SDS011;3249;42.690;23.260;2022-12-11T16:05:56;23.70;;;14.93;;
6432;SDS011;3249;42.690;23.260;2022-12-11T16:08:22;5.43;;;4.93;;
6432;SDS011;3249;42.690;23.260;2022-12-11T16:10:49;3.10;;;2.93;;
6432;SDS011;3249;42.690;23.260;2022-12-11T16:13:17;3.37;;;3.17;;
6432;SDS011;3249;42.690;23.260;2022-12-11T16:15:44;5.77;;;3.57;;
6432;SDS011;3249;42.690;23.260;2022-12-11T16:18:12;3.63;;;3.43;;
6432;SDS011;3249;42.690;23.260;2022-12-11T16:20:40;4.13;;;3.70;;
6432;SDS011;3249;42.690;23.260;2022-12-11T16:23:07;3.17;;;2.97;;
6432;SDS011;3249;42.690;23.260;2022-12-11T16:25:35;3.37;;;3.17;;
6432;SDS011;3249;42.690;23.260;2022-12-11T16:28:03;12.70;;;7.53;;
6432;SDS011;3249;42.690;23.260;2022-12-11T16:30:29;5.23;;;4.83;;
6432;SDS011;3249;42.690;23.260;2022-12-11T16:32:54;3.83;;;3.43;;
6432;SDS011;3249;42.690;23.260;2022-12-11T16:35:20;3.80;;;3.50;;
6432;SDS011;3249;42.690;23.260;2022-12-11T16:37:52;4.37;;;4.03;;
6432;SDS011;3249;42.690;23.260;2022-12-11T16:40:18;3.00;;;2.90;;
6432;SDS011;3249;42.690;23.260;2022-12-11T16:42:44;3.23;;;3.03;;
6432;SDS011;3249;42.690;23.260;2022-12-11T16:45:14;4.57;;;4.17;;
6432;SDS011;3249;42.690;23.260;2022-12-11T16:47:42;3.40;;;3.20;;
6432;SDS011;3249;42.690;23.260;2022-12-11T16:50:08;3.20;;;3.00;;
6432;SDS011;3249;42.690;23.260;2022-12-11T16:52:35;2.70;;;2.60;;
6432;SDS011;3249;42.690;23.260;2022-12-11T16:55:00;3.33;;;2.97;;
6432;SDS011;3249;42.690;23.260;2022-12-11T16:57:26;3.00;;;2.90;;
6432;SDS011;3249;42.690;23.260;2022-12-11T16:59:52;3.27;;;3.07;;
6432;SDS011;3249;42.690;23.260;2022-12-11T17:02:17;4.67;;;4.27;;
6432;SDS011;3249;42.690;23.260;2022-12-11T17:04:43;4.23;;;3.97;;
6432;SDS011;3249;42.690;23.260;2022-12-11T17:07:10;3.57;;;3.37;;
6432;SDS011;3249;42.690;23.260;2022-12-11T17:09:36;3.23;;;3.07;;
6432;SDS011;3249;42.690;23.260;2022-12-11T17:12:01;4.30;;;4.00;;
6432;SDS011;3249;42.690;23.260;2022-12-11T17:14:27;4.47;;;4.17;;
6432;SDS011;3249;42.690;23.260;2022-12-11T17:16:52;6.57;;;5.97;;
6432;SDS011;3249;42.690;23.260;2022-12-11T17:19:18;10.23;;;5.57;;
6432;SDS011;3249;42.690;23.260;2022-12-11T17:21:43;4.67;;;4.20;;
6432;SDS011;3249;42.690;23.260;2022-12-11T17:24:12;6.23;;;3.73;;